Date,TemperatureHighF,TemperatureAvgF,TemperatureLowF,DewpointHighF,DewpointAvgF,DewpointLowF,HumidityHigh,HumidityAvg,HumidityLow,PressureMaxIn,PressureMinIn,WindSpeedMaxMPH,WindSpeedAvgMPH,GustSpeedMaxMPH,PrecipitationSumIn
2013-3-1,38,34,30,30,29,27,91,83,69,30.02,29.96,18,7,22,0.00
2013-3-2,37,32,27,30,27,21,89,80,63,30.05,29.93,22,10,29,0.00
2013-3-3,31,26,23,22,18,15,86,70,55,30.15,30.03,25,12,31,0.00
2013-3-4,52,36,25,28,18,13,76,54,21,30.24,30.11,18,6,19,0.00
2013-3-5,50,40,34,48,36,27,97,85,67,30.13,29.68,27,4,32,0.78
2013-3-6,34,29,26,29,25,23,94,85,71,30.27,29.77,36,16,50,0.00
2013-3-7,36,31,28,28,26,24,89,81,71,30.40,30.27,24,11,27,0.00
2013-3-8,47,35,26,29,26,23,90,71,43,30.44,30.34,17,6,22,0.00
2013-3-9,64,44,24,29,26,22,94,56,25,30.42,30.25,12,4,16,0.00
2013-3-10,64,54,44,36,32,28,60,44,30,30.28,30.12,20,8,27,0.00
2013-3-11,56,52,49,51,46,35,95,82,53,30.14,29.82,26,10,32,0.69
2013-3-12,52,43,36,51,37,33,96,81,58,30.09,29.78,28,11,35,0.27
2013-3-13,42,36,29,33,26,18,96,71,44,30.28,30.09,26,8,39,0.00
2013-3-14,43,33,25,21,17,11,70,54,32,30.39,30.28,25,12,34,0.00
2013-3-15,69,46,28,41,30,19,84,58,25,30.29,29.97,11,3,19,0.00
2013-3-16,76,58,39,48,44,38,93,63,32,29.96,29.76,13,3,19,0.00
2013-3-17,74,58,46,50,46,44,92,68,36,29.98,29.81,16,4,23,0.00
2013-3-18,48,43,40,43,40,37,95,90,83,30.03,29.86,19,8,27,0.57
2013-3-19,55,45,36,43,30,16,98,61,28,30.14,29.91,22,8,31,0.01
2013-3-20,52,40,29,31,19,9,92,48,19,30.16,29.88,22,5,29,0.00
2013-3-21,35,28,22,28,15,11,91,60,41,30.05,29.90,22,12,28,0.00
2013-3-22,47,34,22,25,17,13,78,53,29,30.14,30.05,10,3,14,0.00
2013-3-23,54,44,36,43,35,25,89,72,55,30.09,29.88,13,2,18,0.02
2013-3-24,48,43,39,42,40,37,94,89,81,29.92,29.52,18,6,25,0.89
2013-3-25,39,34,30,38,26,20,94,71,53,29.98,29.56,27,10,38,0.04
2013-3-26,36,31,28,28,26,24,91,82,67,30.30,29.99,22,13,32,0.00
2013-3-27,42,34,30,28,26,23,89,72,54,30.38,30.27,22,11,28,0.00
2013-3-28,48,36,25,27,23,20,91,65,33,30.40,30.30,23,6,28,0.00
2013-3-29,53,37,23,38,29,19,94,77,27,30.42,30.32,17,3,24,0.07
2013-3-30,63,49,38,44,40,37,96,74,45,30.32,30.06,7,2,12,0.17
2013-3-31,63,52,47,53,49,42,97,87,63,30.06,29.84,15,3,18,0.43